sensor_id;sensor_type;location;lat;lon;timestamp;pressure;altitude;pressure_sealevel;temperature;humidity
64388;BME280;50709;52.648;4.764;2023-04-15T00:01:49;101026.69;;;13.03;54.97
64388;BME280;50709;52.648;4.764;2023-04-15T00:04:14;101026.56;;;13.29;55.07
64388;BME280;50709;52.648;4.764;2023-04-15T00:06:41;101021.31;;;13.29;56.67
64388;BME280;50709;52.648;4.764;2023-04-15T00:09:08;101027.59;;;13.01;55.89
64388;BME280;50709;52.648;4.764;2023-04-15T00:11:35;101010.13;;;12.98;56.91
64388;BME280;50709;52.648;4.764;2023-04-15T00:14:02;101011.78;;;13.11;55.51
64388;BME280;50709;52.648;4.764;2023-04-15T00:16:29;101019.78;;;12.93;57.49
64388;BME280;50709;52.648;4.764;2023-04-15T00:18:55;101025.78;;;13.09;55.83
64388;BME280;50709;52.648;4.764;2023-04-15T00:21:22;101025.63;;;13.41;56.62
64388;BME280;50709;52.648;4.764;2023-04-15T00:23:48;101025.97;;;12.70;55.45
64388;BME280;50709;52.648;4.764;2023-04-15T00:26:17;101032.00;;;12.92;56.41
64388;BME280;50709;52.648;4.764;2023-04-15T00:28:45;101025.91;;;12.90;57.49
64388;BME280;50709;52.648;4.764;2023-04-15T00:31:12;101031.81;;;13.26;57.50
64388;BME280;50709;52.648;4.764;2023-04-15T00:33:39;101025.16;;;12.50;56.78
64388;BME280;50709;52.648;4.764;2023-04-15T00:36:06;101000.34;;;13.29;57.70
64388;BME280;50709;52.648;4.764;2023-04-15T00:38:33;101033.66;;;13.07;56.96
64388;BME280;50709;52.648;4.764;2023-04-15T00:40:59;101034.66;;;12.86;56.78
64388;BME280;50709;52.648;4.764;2023-04-15T00:43:25;101043.22;;;13.25;57.38
64388;BME280;50709;52.648;4.764;2023-04-15T00:45:53;101004.09;;;12.84;57.06
64388;BME280;50709;52.648;4.764;2023-04-15T00:48:20;101042.50;;;12.83;58.39
64388;BME280;50709;52.648;4.764;2023-04-15T00:51:06;101026.88;;;12.65;57.07
64388;BME280;50709;52.648;4.764;2023-04-15T00:53:33;101038.81;;;13.26;58.05
64388;BME280;50709;52.648;4.764;2023-04-15T00:55:59;101042.28;;;13.28;57.75
64388;BME280;50709;52.648;4.764;2023-04-15T00:58:26;101023.13;;;13.17;57.23
64388;BME280;50709;52.648;4.764;2023-04-15T01:00:54;101042.53;;;12.86;58.46
64388;BME280;50709;52.648;4.764;2023-04-15T01:03:21;101041.53;;;13.10;58.07
64388;BME280;50709;52.648;4.764;2023-04-15T01:05:47;101042.28;;;13.31;57.82
64388;BME280;50709;52.648;4.764;2023-04-15T01:08:14;101038.28;;;12.43;58.45
64388;BME280;50709;52.648;4.764;2023-04-15T01:10:41;101045.28;;;12.38;57.90
64388;BME280;50709;52.648;4.764;2023-04-15T01:13:07;101039.00;;;12.87;57.99
64388;BME280;50709;52.648;4.764;2023-04-15T01:15:35;101031.28;;;12.49;60.39
64388;BME280;50709;52.648;4.764;2023-04-15T01:18:01;101041.75;;;12.53;59.64
64388;BME280;50709;52.648;4.764;2023-04-15T01:20:28;101045.00;;;13.12;59.48
64388;BME280;50709;52.648;4.764;2023-04-15T01:22:55;101044.41;;;12.49;59.43
64388;BME280;50709;52.648;4.764;2023-04-15T01:25:33;101052.94;;;13.00;59.46
64388;BME280;50709;52.648;4.764;2023-04-15T01:27:59;101048.75;;;12.51;59.41
64388;BME280;50709;52.648;4.764;2023-04-15T01:30:26;101039.84;;;12.99;60.87
64388;BME280;50709;52.648;4.764;2023-04-15T01:32:52;101012.13;;;11.85;60.03
64388;BME280;50709;52.648;4.764;2023-04-15T01:35:19;101044.41;;;12.30;59.28
64388;BME280;50709;52.648;4.764;2023-04-15T01:37:46;101049.66;;;12.32;60.34
64388;BME280;50709;52.648;4.764;2023-04-15T01:40:13;101048.66;;;12.76;59.84
64388;BME280;50709;52.648;4.764;2023-04-15T01:42:42;101038.28;;;12.47;60.12
64388;BME280;50709;52.648;4.764;2023-04-15T01:45:10;101053.13;;;12.31;59.33
64388;BME280;50709;52.648;4.764;2023-04-15T01:47:36;101050.38;;;12.88;58.80
64388;BME280;50709;52.648;4.764;2023-04-15T01:50:03;101049.56;;;12.70;58.13
64388;BME280;50709;52.648;4.764;2023-04-15T01:52:30;101046.13;;;12.54;59.78
64388;BME280;50709;52.648;4.764;2023-04-15T01:54:57;101055.66;;;12.78;60.75
64388;BME280;50709;52.648;4.764;2023-04-15T01:57:23;101048.66;;;12.82;58.90
64388;BME280;50709;52.648;4.764;2023-04-15T01:59:50;101058.00;;;13.34;59.84
64388;BME280;50709;52.648;4.764;2023-04-15T02:02:16;101053.53;;;13.55;59.50
64388;BME280;50709;52.648;4.764;2023-04-15T02:04:43;101054.47;;;13.46;59.35
64388;BME280;50709;52.648;4.764;2023-04-15T02:07:10;101061.63;;;13.08;60.59
64388;BME280;50709;52.648;4.764;2023-04-15T02:09:36;101042.63;;;12.54;59.52
64388;BME280;50709;52.648;4.764;2023-04-15T02:12:03;101060.81;;;12.94;60.20
64388;BME280;50709;52.648;4.764;2023-04-15T02:14:29;101063.47;;;12.88;60.07
64388;BME280;50709;52.648;4.764;2023-04-15T02:16:56;101069.44;;;13.21;62.51
64388;BME280;50709;52.648;4.764;2023-04-15T02:19:23;101053.88;;;12.85;61.27
64388;BME280;50709;52.648;4.764;2023-04-15T02:21:50;101067.75;;;13.13;60.46
64388;BME280;50709;52.648;4.764;2023-04-15T02:24:16;101075.59;;;13.17;59.41
64388;BME280;50709;52.648;4.764;2023-04-15T02:26:43;101079.00;;;13.28;60.13
64388;BME280;50709;52.648;4.764;2023-04-15T02:29:09;101066.81;;;13.22;59.76
64388;BME280;50709;52.648;4.764;2023-04-15T02:31:35;101080.72;;;13.44;60.25
64388;BME280;50709;52.648;4.764;2023-04-15T02:34:05;101087.69;;;13.45;60.66
64388;BME280;50709;52.648;4.764;2023-04-15T02:36:31;101076.38;;;13.28;60.05
64388;BME280;50709;52.648;4.764;2023-04-15T02:38:59;101082.38;;;13.61;59.89
64388;BME280;50709;52.648;4.764;2023-04-15T02:41:25;101073.84;;;13.16;59.76
64388;BME280;50709;52.648;4.764;2023-04-15T02:43:53;101089.50;;;13.36;60.68
64388;BME280;50709;52.648;4.764;2023-04-15T02:46:20;101080.75;;;13.35;60.50
64388;BME280;50709;52.648;4.764;2023-04-15T02:48:48;101092.84;;;13.61;61.29
64388;BME280;50709;52.648;4.764;2023-04-15T02:51:18;101085.91;;;13.51;61.05
64388;BME280;50709;52.648;4.764;2023-04-15T02:53:44;101079.00;;;13.42;60.46
64388;BME280;50709;52.648;4.764;2023-04-15T02:56:11;101074.63;;;13.32;60.89
64388;BME280;50709;52.648;4.764;2023-04-15T02:58:40;101097.38;;;13.40;61.41
64388;BME280;50709;52.648;4.764;2023-04-15T03:01:06;101086.16;;;13.01;61.45
64388;BME280;50709;52.648;4.764;2023-04-15T03:03:36;101104.38;;;13.26;61.74
64388;BME280;50709;52.648;4.764;2023-04-15T03:06:02;101102.84;;;12.69;61.45
64388;BME280;50709;52.648;4.764;2023-04-15T03:08:28;101078.28;;;12.98;61.31
64388;BME280;50709;52.648;4.764;2023-04-15T03:10:57;101096.63;;;13.01;62.04
64388;BME280;50709;52.648;4.764;2023-04-15T03:13:26;101100.22;;;12.72;60.54
64388;BME280;50709;52.648;4.764;2023-04-15T03:15:53;101107.84;;;13.28;61.83
64388;BME280;50709;52.648;4.764;2023-04-15T03:18:19;101106.97;;;13.35;62.42
64388;BME280;50709;52.648;4.764;2023-04-15T03:20:45;101102.91;;;11.95;61.93
64388;BME280;50709;52.648;4.764;2023-04-15T03:23:12;101114.94;;;13.07;62.14
64388;BME280;50709;52.648;4.764;2023-04-15T03:25:38;101110.75;;;12.57;61.69
64388;BME280;50709;52.648;4.764;2023-04-15T03:28:04;101117.66;;;12.83;62.63
64388;BME280;50709;52.648;4.764;2023-04-15T03:30:31;101124.69;;;12.64;63.05
64388;BME280;50709;52.648;4.764;2023-04-15T03:32:58;101126.41;;;12.71;62.11
64388;BME280;50709;52.648;4.764;2023-04-15T03:35:26;101129.09;;;12.48;62.59
64388;BME280;50709;52.648;4.764;2023-04-15T03:37:52;101127.28;;;12.84;63.88
64388;BME280;50709;52.648;4.764;2023-04-15T03:40:20;101116.84;;;12.62;61.81
64388;BME280;50709;52.648;4.764;2023-04-15T03:42:47;101125.50;;;12.95;63.37
64388;BME280;50709;52.648;4.764;2023-04-15T03:45:13;101136.06;;;12.49;62.11
64388;BME280;50709;52.648;4.764;2023-04-15T03:47:40;101141.25;;;12.78;62.21
64388;BME280;50709;52.648;4.764;2023-04-15T03:50:07;101143.03;;;12.74;63.59
64388;BME280;50709;52.648;4.764;2023-04-15T03:52:34;101147.38;;;12.88;62.82
64388;BME280;50709;52.648;4.764;2023-04-15T03:55:00;101157.03;;;12.38;63.08
64388;BME280;50709;52.648;4.764;2023-04-15T03:57:27;101156.13;;;12.60;61.52
64388;BME280;50709;52.648;4.764;2023-04-15T03:59:53;101157.03;;;12.47;63.54
64388;BME280;50709;52.648;4.764;2023-04-15T04:02:39;101144.78;;;12.57;63.24
64388;BME280;50709;52.648;4.764;2023-04-15T04:05:06;101161.38;;;12.45;63.21
64388;BME280;50709;52.648;4.764;2023-04-15T04:07:32;101156.13;;;12.67;62.95
64388;BME280;50709;52.648;4.764;2023-04-15T04:09:59;101171.00;;;12.44;63.65
64388;BME280;50709;52.648;4.764;2023-04-15T04:12:26;101163.13;;;12.68;64.11
64388;BME280;50709;52.648;4.764;2023-04-15T04:14:55;101163.16;;;12.12;63.61
64388;BME280;50709;52.648;4.764;2023-04-15T04:17:21;101167.47;;;12.73;64.35
64388;BME280;50709;52.648;4.764;2023-04-15T04:19:48;101175.34;;;12.53;64.39
64388;BME280;50709;52.648;4.764;2023-04-15T04:22:15;101177.91;;;13.00;63.81
64388;BME280;50709;52.648;4.764;2023-04-15T04:24:42;101182.31;;;12.81;64.39
64388;BME280;50709;52.648;4.764;2023-04-15T04:27:09;101175.38;;;12.47;63.28
64388;BME280;50709;52.648;4.764;2023-04-15T04:29:36;101188.44;;;11.94;63.85
64388;BME280;50709;52.648;4.764;2023-04-15T04:32:02;101190.09;;;11.86;64.99
64388;BME280;50709;52.648;4.764;2023-04-15T04:34:28;101179.72;;;12.11;64.13
64388;BME280;50709;52.648;4.764;2023-04-15T04:36:55;101193.69;;;12.32;65.73
64388;BME280;50709;52.648;4.764;2023-04-15T04:39:22;101201.53;;;12.08;64.22
64388;BME280;50709;52.648;4.764;2023-04-15T04:41:49;101185.81;;;12.08;65.12
64388;BME280;50709;52.648;4.764;2023-04-15T04:44:17;101204.16;;;12.55;65.07
64388;BME280;50709;52.648;4.764;2023-04-15T04:46:44;101209.41;;;12.72;64.66
64388;BME280;50709;52.648;4.764;2023-04-15T04:49:11;101204.16;;;12.90;65.25
64388;BME280;50709;52.648;4.764;2023-04-15T04:51:38;101219.00;;;12.71;63.92
64388;BME280;50709;52.648;4.764;2023-04-15T04:54:04;101207.66;;;12.86;64.51
64388;BME280;50709;52.648;4.764;2023-04-15T04:56:30;101227.69;;;12.02;65.51
64388;BME280;50709;52.648;4.764;2023-04-15T04:58:59;101233.88;;;12.71;65.83
64388;BME280;50709;52.648;4.764;2023-04-15T05:01:26;101240.72;;;11.90;65.09
64388;BME280;50709;52.648;4.764;2023-04-15T05:03:53;101239.91;;;12.00;65.49
64388;BME280;50709;52.648;4.764;2023-04-15T05:06:19;101240.81;;;12.11;64.16
64388;BME280;50709;52.648;4.764;2023-04-15T05:08:47;101246.97;;;12.37;66.24
64388;BME280;50709;52.648;4.764;2023-04-15T05:11:33;101250.38;;;12.03;64.56
64388;BME280;50709;52.648;4.764;2023-04-15T05:13:59;101259.09;;;11.94;65.97
64388;BME280;50709;52.648;4.764;2023-04-15T05:16:26;101255.50;;;11.78;65.27
64388;BME280;50709;52.648;4.764;2023-04-15T05:18:51;101267.88;;;12.18;65.10
64388;BME280;50709;52.648;4.764;2023-04-15T05:21:17;101234.69;;;12.16;65.49
64388;BME280;50709;52.648;4.764;2023-04-15T05:23:42;101279.94;;;11.77;64.47
64388;BME280;50709;52.648;4.764;2023-04-15T05:26:08;101275.69;;;12.09;64.92
64388;BME280;50709;52.648;4.764;2023-04-15T05:28:33;101278.41;;;12.34;65.23
64388;BME280;50709;52.648;4.764;2023-04-15T05:30:59;101282.78;;;12.49;65.50
64388;BME280;50709;52.648;4.764;2023-04-15T05:33:25;101287.06;;;12.17;64.59
64388;BME280;50709;52.648;4.764;2023-04-15T05:35:50;101287.03;;;12.03;64.65
64388;BME280;50709;52.648;4.764;2023-04-15T05:38:15;101294.03;;;12.03;65.88
64388;BME280;50709;52.648;4.764;2023-04-15T05:40:42;101292.25;;;11.97;65.17
64388;BME280;50709;52.648;4.764;2023-04-15T05:43:10;101299.25;;;12.07;66.97
64388;BME280;50709;52.648;4.764;2023-04-15T05:45:35;101317.47;;;11.80;66.66
64388;BME280;50709;52.648;4.764;2023-04-15T05:48:01;101312.19;;;11.72;66.90
64388;BME280;50709;52.648;4.764;2023-04-15T05:50:26;101311.22;;;11.54;67.12
64388;BME280;50709;52.648;4.764;2023-04-15T05:52:51;101327.91;;;11.78;67.09
64388;BME280;50709;52.648;4.764;2023-04-15T05:55:17;101339.94;;;11.45;66.54
64388;BME280;50709;52.648;4.764;2023-04-15T05:57:42;101344.44;;;11.72;65.72
64388;BME280;50709;52.648;4.764;2023-04-15T06:00:08;101314.06;;;12.04;67.18
64388;BME280;50709;52.648;4.764;2023-04-15T06:02:34;101315.03;;;12.29;65.54
64388;BME280;50709;52.648;4.764;2023-04-15T06:05:00;101341.06;;;11.92;65.38
64388;BME280;50709;52.648;4.764;2023-04-15T06:07:25;101336.81;;;12.09;66.14
64388;BME280;50709;52.648;4.764;2023-04-15T06:09:51;101352.56;;;12.25;63.76
64388;BME280;50709;52.648;4.764;2023-04-15T06:12:16;101343.06;;;12.61;63.81
64388;BME280;50709;52.648;4.764;2023-04-15T06:14:42;101349.97;;;12.34;63.15
64388;BME280;50709;52.648;4.764;2023-04-15T06:17:07;101362.22;;;12.38;65.13
64388;BME280;50709;52.648;4.764;2023-04-15T06:19:33;101363.03;;;12.23;64.85
64388;BME280;50709;52.648;4.764;2023-04-15T06:22:00;101370.03;;;12.32;64.48
64388;BME280;50709;52.648;4.764;2023-04-15T06:24:26;101388.53;;;12.88;63.93
64388;BME280;50709;52.648;4.764;2023-04-15T06:26:51;101381.50;;;12.64;64.08
64388;BME280;50709;52.648;4.764;2023-04-15T06:29:16;101391.84;;;12.19;63.54
64388;BME280;50709;52.648;4.764;2023-04-15T06:31:42;101398.06;;;12.67;63.29
64388;BME280;50709;52.648;4.764;2023-04-15T06:34:07;101390.25;;;12.86;63.44
64388;BME280;50709;52.648;4.764;2023-04-15T06:36:33;101398.91;;;12.48;63.17
64388;BME280;50709;52.648;4.764;2023-04-15T06:38:58;101396.38;;;12.75;63.38
64388;BME280;50709;52.648;4.764;2023-04-15T06:41:23;101402.53;;;13.28;61.84
64388;BME280;50709;52.648;4.764;2023-04-15T06:43:49;101397.25;;;12.90;62.77
64388;BME280;50709;52.648;4.764;2023-04-15T06:46:15;101408.63;;;12.98;61.58
64388;BME280;50709;52.648;4.764;2023-04-15T06:48:40;101413.84;;;12.89;62.22
64388;BME280;50709;52.648;4.764;2023-04-15T06:51:06;101422.59;;;12.80;61.16
64388;BME280;50709;52.648;4.764;2023-04-15T06:53:32;101422.59;;;13.06;61.23
64388;BME280;50709;52.648;4.764;2023-04-15T06:55:57;101415.63;;;13.22;61.18
64388;BME280;50709;52.648;4.764;2023-04-15T06:58:23;101427.88;;;13.79;60.01
64388;BME280;50709;52.648;4.764;2023-04-15T07:00:48;101425.31;;;13.50;60.44
64388;BME280;50709;52.648;4.764;2023-04-15T07:03:14;101423.50;;;13.22;59.46
64388;BME280;50709;52.648;4.764;2023-04-15T07:05:40;101400.72;;;12.70;60.96
64388;BME280;50709;52.648;4.764;2023-04-15T07:08:05;101431.38;;;13.75;59.88
64388;BME280;50709;52.648;4.764;2023-04-15T07:10:32;101435.78;;;13.53;59.18
64388;BME280;50709;52.648;4.764;2023-04-15T07:12:58;101427.81;;;14.05;59.39
64388;BME280;50709;52.648;4.764;2023-04-15T07:15:23;101438.34;;;13.99;55.86
64388;BME280;50709;52.648;4.764;2023-04-15T07:17:49;101435.59;;;14.38;56.74
64388;BME280;50709;52.648;4.764;2023-04-15T07:20:14;101445.34;;;13.92;58.97
64388;BME280;50709;52.648;4.764;2023-04-15T07:22:39;101444.25;;;14.68;56.62
64388;BME280;50709;52.648;4.764;2023-04-15T07:25:05;101442.38;;;14.85;57.23
64388;BME280;50709;52.648;4.764;2023-04-15T07:27:31;101447.38;;;15.27;56.03
64388;BME280;50709;52.648;4.764;2023-04-15T07:29:57;101457.53;;;15.70;52.80
64388;BME280;50709;52.648;4.764;2023-04-15T07:32:22;101455.22;;;16.25;53.00
64388;BME280;50709;52.648;4.764;2023-04-15T07:34:48;101454.22;;;15.46;54.25
64388;BME280;50709;52.648;4.764;2023-04-15T07:37:13;101466.81;;;16.10;53.19
64388;BME280;50709;52.648;4.764;2023-04-15T07:39:39;101458.81;;;16.19;50.84
64388;BME280;50709;52.648;4.764;2023-04-15T07:42:04;101466.53;;;16.36;51.24
64388;BME280;50709;52.648;4.764;2023-04-15T07:44:30;101473.31;;;15.72;52.10
64388;BME280;50709;52.648;4.764;2023-04-15T07:46:56;101482.56;;;16.16;53.54
64388;BME280;50709;52.648;4.764;2023-04-15T07:49:21;101484.56;;;16.70;51.65
64388;BME280;50709;52.648;4.764;2023-04-15T07:51:48;101476.00;;;17.18;49.45
64388;BME280;50709;52.648;4.764;2023-04-15T07:54:14;101477.91;;;17.63;49.73
64388;BME280;50709;52.648;4.764;2023-04-15T07:56:40;101495.25;;;15.74;50.97
64388;BME280;50709;52.648;4.764;2023-04-15T07:59:05;101481.34;;;15.53;50.85
64388;BME280;50709;52.648;4.764;2023-04-15T08:01:31;101497.28;;;16.37;51.82
64388;BME280;50709;52.648;4.764;2023-04-15T08:03:57;101501.75;;;16.30;52.39
64388;BME280;50709;52.648;4.764;2023-04-15T08:06:23;101506.31;;;16.88;51.16
64388;BME280;50709;52.648;4.764;2023-04-15T08:08:49;101519.50;;;16.89;50.29
64388;BME280;50709;52.648;4.764;2023-04-15T08:11:14;101489.84;;;15.89;51.81
64388;BME280;50709;52.648;4.764;2023-04-15T08:13:40;101517.06;;;15.88;51.16
64388;BME280;50709;52.648;4.764;2023-04-15T08:16:24;101527.69;;;15.77;54.03
64388;BME280;50709;52.648;4.764;2023-04-15T08:18:51;101516.66;;;16.33;54.58
64388;BME280;50709;52.648;4.764;2023-04-15T08:21:17;101542.59;;;16.69;52.75
64388;BME280;50709;52.648;4.764;2023-04-15T08:23:44;101528.06;;;16.34;51.85
64388;BME280;50709;52.648;4.764;2023-04-15T08:26:10;101537.03;;;16.12;52.36
64388;BME280;50709;52.648;4.764;2023-04-15T08:28:38;101531.63;;;16.29;51.71
64388;BME280;50709;52.648;4.764;2023-04-15T08:31:04;101546.34;;;15.50;51.17
64388;BME280;50709;52.648;4.764;2023-04-15T08:33:31;101549.66;;;16.68;54.32
64388;BME280;50709;52.648;4.764;2023-04-15T08:35:56;101549.63;;;16.67;50.28
64388;BME280;50709;52.648;4.764;2023-04-15T08:38:22;101551.72;;;16.38;51.31
64388;BME280;50709;52.648;4.764;2023-04-15T08:40:48;101559.31;;;16.68;50.93
64388;BME280;50709;52.648;4.764;2023-04-15T08:43:26;101559.09;;;16.86;51.04
64388;BME280;50709;52.648;4.764;2023-04-15T08:45:53;101564.53;;;16.71;50.60
64388;BME280;50709;52.648;4.764;2023-04-15T08:48:20;101558.47;;;17.34;50.15
64388;BME280;50709;52.648;4.764;2023-04-15T08:50:46;101568.44;;;17.13;48.27
64388;BME280;50709;52.648;4.764;2023-04-15T08:53:12;101561.72;;;17.52;49.34
64388;BME280;50709;52.648;4.764;2023-04-15T08:55:44;101564.69;;;17.88;48.77
64388;BME280;50709;52.648;4.764;2023-04-15T08:58:11;101556.63;;;17.97;48.84
64388;BME280;50709;52.648;4.764;2023-04-15T09:00:38;101574.25;;;16.69;49.68
64388;BME280;50709;52.648;4.764;2023-04-15T09:03:07;101582.78;;;16.94;48.43
64388;BME280;50709;52.648;4.764;2023-04-15T09:05:33;101574.94;;;17.52;49.48
64388;BME280;50709;52.648;4.764;2023-04-15T09:07:59;101590.94;;;16.69;48.97
64388;BME280;50709;52.648;4.764;2023-04-15T09:10:25;101585.78;;;17.33;48.43
64388;BME280;50709;52.648;4.764;2023-04-15T09:12:51;101579.13;;;17.65;48.46
64388;BME280;50709;52.648;4.764;2023-04-15T09:15:17;101595.28;;;17.43;46.92
64388;BME280;50709;52.648;4.764;2023-04-15T09:17:43;101584.00;;;17.91;47.57
64388;BME280;50709;52.648;4.764;2023-04-15T09:20:11;101596.31;;;18.92;47.99
64388;BME280;50709;52.648;4.764;2023-04-15T09:22:59;101595.56;;;18.82;45.09
64388;BME280;50709;52.648;4.764;2023-04-15T09:25:25;101611.88;;;19.06;48.11
64388;BME280;50709;52.648;4.764;2023-04-15T09:27:59;101626.09;;;17.44;47.36
64388;BME280;50709;52.648;4.764;2023-04-15T09:30:29;101623.44;;;18.05;45.55
64388;BME280;50709;52.648;4.764;2023-04-15T09:32:55;101630.72;;;18.91;47.26
64388;BME280;50709;52.648;4.764;2023-04-15T09:35:22;101634.06;;;18.02;45.77
64388;BME280;50709;52.648;4.764;2023-04-15T09:37:49;101623.13;;;17.68;49.54
64388;BME280;50709;52.648;4.764;2023-04-15T09:40:39;101627.66;;;17.58;49.68
64388;BME280;50709;52.648;4.764;2023-04-15T09:43:06;101621.91;;;19.34;47.81
64388;BME280;50709;52.648;4.764;2023-04-15T09:45:33;101648.75;;;19.15;49.02
64388;BME280;50709;52.648;4.764;2023-04-15T09:48:15;101614.00;;;18.89;47.19
64388;BME280;50709;52.648;4.764;2023-04-15T09:50:42;101632.03;;;18.16;45.93
64388;BME280;50709;52.648;4.764;2023-04-15T09:53:15;101619.91;;;17.45;47.54
64388;BME280;50709;52.648;4.764;2023-04-15T09:56:00;101627.25;;;19.31;46.51
64388;BME280;50709;52.648;4.764;2023-04-15T09:58:30;101652.81;;;18.90;48.60
64388;BME280;50709;52.648;4.764;2023-04-15T10:00:57;101660.50;;;19.44;45.95
64388;BME280;50709;52.648;4.764;2023-04-15T10:03:28;101660.81;;;19.30;45.42
64388;BME280;50709;52.648;4.764;2023-04-15T10:05:55;101632.44;;;18.95;45.94
64388;BME280;50709;52.648;4.764;2023-04-15T10:08:23;101661.06;;;19.18;47.85
64388;BME280;50709;52.648;4.764;2023-04-15T10:10:49;101660.94;;;19.24;45.92
64388;BME280;50709;52.648;4.764;2023-04-15T10:13:20;101663.91;;;19.49;48.24
64388;BME280;50709;52.648;4.764;2023-04-15T10:16:02;101670.38;;;18.94;44.32
64388;BME280;50709;52.648;4.764;2023-04-15T10:18:29;101672.53;;;19.19;47.78
64388;BME280;50709;52.648;4.764;2023-04-15T10:20:56;101666.78;;;19.40;46.22
64388;BME280;50709;52.648;4.764;2023-04-15T10:23:24;101667.59;;;18.53;44.80
64388;BME280;50709;52.648;4.764;2023-04-15T10:25:52;101681.53;;;19.52;47.35
64388;BME280;50709;52.648;4.764;2023-04-15T10:28:20;101684.81;;;19.63;46.60
64388;BME280;50709;52.648;4.764;2023-04-15T10:30:49;101673.09;;;19.74;45.93
64388;BME280;50709;52.648;4.764;2023-04-15T10:33:16;101689.94;;;20.10;44.44
64388;BME280;50709;52.648;4.764;2023-04-15T10:35:44;101697.75;;;20.16;42.92
64388;BME280;50709;52.648;4.764;2023-04-15T10:38:41;101691.44;;;19.85;42.88
64388;BME280;50709;52.648;4.764;2023-04-15T10:41:25;101698.94;;;20.39;46.09
64388;BME280;50709;52.648;4.764;2023-04-15T10:44:02;101703.63;;;20.29;44.70
64388;BME280;50709;52.648;4.764;2023-04-15T10:46:35;101704.94;;;20.82;43.46
64388;BME280;50709;52.648;4.764;2023-04-15T10:49:17;101702.44;;;20.41;41.13
64388;BME280;50709;52.648;4.764;2023-04-15T10:51:52;101705.19;;;20.38;46.13
64388;BME280;50709;52.648;4.764;2023-04-15T10:59:38;101704.88;;;20.50;44.22
64388;BME280;50709;52.648;4.764;2023-04-15T11:02:41;101696.38;;;20.36;44.21
64388;BME280;50709;52.648;4.764;2023-04-15T11:05:07;101718.72;;;20.27;43.29
64388;BME280;50709;52.648;4.764;2023-04-15T11:07:37;101716.84;;;20.31;42.44
64388;BME280;50709;52.648;4.764;2023-04-15T11:12:38;101687.28;;;20.81;45.59
64388;BME280;50709;52.648;4.764;2023-04-15T11:15:29;101733.47;;;21.08;44.81
64388;BME280;50709;52.648;4.764;2023-04-15T11:18:09;101725.75;;;21.30;45.93
64388;BME280;50709;52.648;4.764;2023-04-15T11:20:36;101740.19;;;21.22;45.18
64388;BME280;50709;52.648;4.764;2023-04-15T11:23:03;101739.94;;;20.98;44.34
64388;BME280;50709;52.648;4.764;2023-04-15T11:25:31;101734.72;;;20.95;44.31
64388;BME280;50709;52.648;4.764;2023-04-15T11:27:58;101735.63;;;20.22;45.80
64388;BME280;50709;52.648;4.764;2023-04-15T11:30:30;101745.03;;;21.06;44.32
64388;BME280;50709;52.648;4.764;2023-04-15T11:33:01;101757.84;;;20.90;45.32
64388;BME280;50709;52.648;4.764;2023-04-15T11:35:27;101757.75;;;20.93;45.41
64388;BME280;50709;52.648;4.764;2023-04-15T11:37:53;101749.66;;;20.99;45.29
64388;BME280;50709;52.648;4.764;2023-04-15T11:40:23;101761.53;;;21.17;43.71
64388;BME280;50709;52.648;4.764;2023-04-15T11:43:10;101756.16;;;20.87;43.79
64388;BME280;50709;52.648;4.764;2023-04-15T11:45:36;101761.50;;;20.49;43.86
64388;BME280;50709;52.648;4.764;2023-04-15T11:50:32;101750.88;;;20.49;43.04
64388;BME280;50709;52.648;4.764;2023-04-15T11:53:02;101750.06;;;20.47;42.39
64388;BME280;50709;52.648;4.764;2023-04-15T11:55:29;101735.44;;;20.29;42.99
64388;BME280;50709;52.648;4.764;2023-04-15T11:58:12;101756.84;;;20.22;45.12
64388;BME280;50709;52.648;4.764;2023-04-15T12:00:40;101760.31;;;20.61;44.43
64388;BME280;50709;52.648;4.764;2023-04-15T12:13:58;101792.25;;;20.58;46.99
64388;BME280;50709;52.648;4.764;2023-04-15T12:16:24;101769.66;;;20.78;46.14
64388;BME280;50709;52.648;4.764;2023-04-15T12:18:54;101777.09;;;20.98;42.96
64388;BME280;50709;52.648;4.764;2023-04-15T12:21:27;101785.34;;;20.87;45.98
64388;BME280;50709;52.648;4.764;2023-04-15T12:24:01;101783.78;;;20.78;45.54
64388;BME280;50709;52.648;4.764;2023-04-15T12:26:33;101794.41;;;21.13;45.26
64388;BME280;50709;52.648;4.764;2023-04-15T12:29:03;101796.03;;;20.48;41.79
64388;BME280;50709;52.648;4.764;2023-04-15T12:31:29;101797.50;;;20.97;44.88
64388;BME280;50709;52.648;4.764;2023-04-15T12:33:55;101811.22;;;20.79;47.49
64388;BME280;50709;52.648;4.764;2023-04-15T12:36:21;101814.69;;;20.43;48.07
64388;BME280;50709;52.648;4.764;2023-04-15T12:38:47;101815.91;;;20.30;45.95
64388;BME280;50709;52.648;4.764;2023-04-15T12:41:12;101818.25;;;20.05;46.80
64388;BME280;50709;52.648;4.764;2023-04-15T12:43:37;101823.50;;;20.45;45.73
64388;BME280;50709;52.648;4.764;2023-04-15T12:46:03;101822.63;;;21.17;47.78
64388;BME280;50709;52.648;4.764;2023-04-15T12:48:29;101812.56;;;20.95;46.10
64388;BME280;50709;52.648;4.764;2023-04-15T12:50:55;101830.66;;;21.15;48.27
64388;BME280;50709;52.648;4.764;2023-04-15T12:53:20;101834.34;;;20.74;44.14
64388;BME280;50709;52.648;4.764;2023-04-15T12:55:45;101836.25;;;20.67;47.89
64388;BME280;50709;52.648;4.764;2023-04-15T12:58:11;101836.03;;;20.78;43.69
64388;BME280;50709;52.648;4.764;2023-04-15T13:00:37;101849.06;;;20.87;48.74
64388;BME280;50709;52.648;4.764;2023-04-15T13:03:22;101858.28;;;21.08;45.56
64388;BME280;50709;52.648;4.764;2023-04-15T13:05:47;101843.16;;;21.10;47.44
64388;BME280;50709;52.648;4.764;2023-04-15T13:08:13;101843.41;;;21.36;46.18
64388;BME280;50709;52.648;4.764;2023-04-15T13:10:38;101856.41;;;21.12;43.58
64388;BME280;50709;52.648;4.764;2023-04-15T13:13:04;101858.59;;;20.58;45.39
64388;BME280;50709;52.648;4.764;2023-04-15T13:15:30;101835.44;;;20.63;49.48